KOXD/OXD METAR and TAF weather

Enter ICAO airport designator
Station Type Date Time Source
KOXD METAR 2019/12/13 16:56 UTC NOAA

KOXD 131656Z AUTO 16006KT 10SM BKN100 07/05 A3000 RMK AO2 T00660045


Station Type Date Time Source
KOXD Decoded METAR 2019/12/13 16:56 UTC NOAA

Station name not available
Dec 13, 2019 - 11:56 AM EST / 2019.12.13 1656 UTC
Wind: from the SSE (160 degrees) at 7 MPH (6 KT):0
Visibility: 10 mile(s):0
Sky conditions: mostly cloudy
Temperature: 43.9 F (6.6 C)
Dew Point: 40.1 F (4.5 C)
Relative Humidity: 86%
Pressure (altimeter): 30 in. Hg (1015 hPa)
ob: KOXD 131656Z AUTO 16006KT 10SM BKN100 07/05 A3000 RMK AO2 T00660045
cycle: 17

Station Type Date Time Source
KOXD TAF UTC NOAA

Error!

Example: see airport list